Time;durP1;ratioP1;P1;durP2;ratioP2;P2;SDS_P1;SDS_P2;PMS_P1;PMS_P2;Temp;Humidity;BMP_temperature;BMP_pressure;BME280_temperature;BME280_humidity;BME280_pressure;Samples;Min_cycle;Max_cycle;Signal;HPM_P1;HPM_P2
2022/07/28 00:01:35;;;;;;;5.82;5.53;;;;;;;25.38;100.00;-18422.78;5075555;28;20188;-65
2022/07/28 00:04:02;;;;;;;6.40;5.97;;;;;;;25.50;100.00;-18425.63;5075195;28;20191;-65
2022/07/28 00:06:28;;;;;;;7.15;5.75;;;;;;;25.43;100.00;-18423.97;5075044;28;20209;-65
2022/07/28 00:08:55;;;;;;;8.35;6.60;;;;;;;25.54;100.00;-18426.59;5075379;28;20189;-65
2022/07/28 00:11:23;;;;;;;11.88;7.05;;;;;;;25.45;100.00;-18424.44;5075078;28;20622;-65
2022/07/28 00:13:50;;;;;;;7.13;6.57;;;;;;;25.49;100.00;-18425.41;5074503;28;20707;-66
2022/07/28 00:16:17;;;;;;;6.43;6.10;;;;;;;25.51;100.00;-18425.88;5075360;28;20535;-65
2022/07/28 00:18:45;;;;;;;10.10;6.20;;;;;;;25.38;100.00;-18422.78;5074616;28;20189;-66
2022/07/28 00:21:14;;;;;;;7.03;6.63;;;;;;;25.45;100.00;-18424.44;5075399;28;20248;-65
2022/07/28 00:23:41;;;;;;;10.52;7.07;;;;;;;25.35;100.00;-18422.19;5074910;28;20653;-66
2022/07/28 00:26:08;;;;;;;7.50;6.90;;;;;;;25.27;100.00;-18420.19;5074745;28;20215;-66
2022/07/28 00:28:36;;;;;;;7.18;6.88;;;;;;;25.18;100.00;-18418.06;5075093;28;20667;-65
2022/07/28 00:31:04;;;;;;;8.10;7.53;;;;;;;25.20;100.00;-18418.53;5074241;28;20193;-65
2022/07/28 00:33:31;;;;;;;7.65;7.05;;;;;;;25.23;100.00;-18419.38;5074946;28;20181;-65
2022/07/28 00:35:59;;;;;;;7.43;6.88;;;;;;;25.09;100.00;-18416.06;5074311;28;20185;-65
2022/07/28 00:38:26;;;;;;;6.93;6.32;;;;;;;25.04;100.00;-18414.75;5074157;28;20191;-65
2022/07/28 00:41:11;;;;;;;6.53;6.10;;;;;;;24.90;100.00;-18411.66;5075581;28;20627;-65
2022/07/28 00:43:39;;;;;;;6.22;5.97;;;;;;;25.01;100.00;-18414.16;5074311;28;20192;-65
2022/07/28 00:46:07;;;;;;;6.82;6.03;;;;;;;25.01;100.00;-18414.16;5074334;28;20209;-66
2022/07/28 00:48:34;;;;;;;6.22;5.72;;;;;;;24.87;100.00;-18410.97;5075115;28;20188;-66
2022/07/28 00:51:02;;;;;;;6.10;5.80;;;;;;;24.88;100.00;-18411.19;5074483;28;20288;-65
2022/07/28 00:53:29;;;;;;;6.63;6.13;;;;;;;24.79;100.00;-18409.06;5074018;28;20204;-65
2022/07/28 00:55:58;;;;;;;6.63;6.22;;;;;;;24.64;100.00;-18405.50;5074179;28;20185;-65
2022/07/28 00:58:26;;;;;;;6.43;5.80;;;;;;;24.48;100.00;-18401.72;5074756;28;20189;-65
2022/07/28 01:00:53;;;;;;;7.00;6.03;;;;;;;24.47;100.00;-18401.47;5073663;28;20203;-65
2022/07/28 01:03:21;;;;;;;8.93;6.05;;;;;;;24.57;100.00;-18403.84;5073584;28;20625;-65
2022/07/28 01:05:56;;;;;;;9.85;8.23;;;;;;;24.61;100.00;-18404.81;5074126;28;20216;-65
2022/07/28 01:08:34;;;;;;;6.03;5.63;;;;;;;24.59;100.00;-18404.31;5074041;28;20620;-65
2022/07/28 01:11:08;;;;;;;6.03;5.80;;;;;;;24.46;100.00;-18401.25;5073983;28;20238;-65
2022/07/28 01:13:42;;;;;;;6.53;6.28;;;;;;;24.55;100.00;-18403.38;5073529;28;20231;-65
2022/07/28 01:16:10;;;;;;;5.75;5.55;;;;;;;24.48;100.00;-18401.84;5073776;28;20792;-66
2022/07/28 01:18:42;;;;;;;6.18;5.78;;;;;;;24.67;100.00;-18406.09;5074058;28;20189;-65
2022/07/28 01:21:13;;;;;;;6.40;5.97;;;;;;;24.74;100.00;-18407.88;5073439;28;20181;-65
2022/07/28 01:23:57;;;;;;;5.40;5.20;;;;;;;24.75;100.00;-18408.00;5073861;28;20622;-65
2022/07/28 01:26:41;;;;;;;5.78;5.30;;;;;;;24.67;100.00;-18406.22;5073260;28;20291;-65
2022/07/28 01:29:21;;;;;;;5.75;5.55;;;;;;;24.60;100.00;-18404.56;5073647;28;20191;-66
2022/07/28 01:31:56;;;;;;;5.78;5.38;;;;;;;24.64;100.00;-18405.41;5073677;28;20184;-65
2022/07/28 01:34:29;;;;;;;5.90;5.70;;;;;;;24.71;100.00;-18407.16;5073390;28;20635;-65
2022/07/28 01:36:59;;;;;;;6.70;6.25;;;;;;;24.63;100.00;-18405.16;5073336;28;20184;-65
2022/07/28 01:39:32;;;;;;;5.80;5.55;;;;;;;24.83;100.00;-18410.00;5073523;28;20184;-66
2022/07/28 01:42:01;;;;;;;6.05;5.50;;;;;;;24.82;100.00;-18409.78;5072942;28;20255;-65
2022/07/28 01:44:30;;;;;;;6.53;5.95;;;;;;;24.69;100.00;-18406.69;5073674;28;20203;-66
2022/07/28 01:47:03;;;;;;;5.97;5.57;;;;;;;24.80;100.00;-18409.19;5073478;28;20215;-65
2022/07/28 01:49:34;;;;;;;5.20;5.00;;;;;;;24.84;100.00;-18410.25;5073210;28;20697;-65
2022/07/28 01:52:03;;;;;;;5.15;4.80;;;;;;;24.86;100.00;-18410.59;5072844;28;20260;-65
2022/07/28 01:54:32;;;;;;;5.70;5.30;;;;;;;24.94;100.00;-18412.63;5072711;28;20199;-65
2022/07/28 01:57:01;;;;;;;4.93;4.70;;;;;;;24.94;100.00;-18412.63;5073099;28;20184;-65
2022/07/28 01:59:30;;;;;;;5.47;5.05;;;;;;;24.94;100.00;-18412.50;5072716;28;20184;-66
2022/07/28 02:02:00;;;;;;;5.68;5.28;;;;;;;24.99;100.00;-18413.81;5073029;28;20181;-65
2022/07/28 02:04:29;;;;;;;5.90;5.60;;;;;;;24.97;100.00;-18413.31;5072786;28;20185;-65
2022/07/28 02:06:58;;;;;;;5.50;5.28;;;;;;;24.83;100.00;-18410.00;5073053;28;20215;-65
2022/07/28 02:09:26;;;;;;;5.80;5.50;;;;;;;24.87;100.00;-18410.97;5072887;28;20657;-66
2022/07/28 02:11:55;;;;;;;5.72;5.35;;;;;;;24.91;100.00;-18411.78;5072792;28;20181;-65
2022/07/28 02:14:23;;;;;;;5.57;5.28;;;;;;;24.88;100.00;-18411.06;5072159;28;20195;-65
2022/07/28 02:16:54;;;;;;;7.35;6.97;;;;;;;24.92;100.00;-18412.16;5072588;28;20189;-66
2022/07/28 02:19:23;;;;;;;8.23;7.80;;;;;;;24.88;100.00;-18411.06;5072524;28;20621;-66
2022/07/28 02:21:51;;;;;;;8.18;6.95;;;;;;;24.78;100.00;-18408.81;5072847;28;20200;-65
2022/07/28 02:24:21;;;;;;;8.23;7.30;;;;;;;24.78;100.00;-18408.81;5072849;28;20184;-65
2022/07/28 02:26:53;;;;;;;7.25;6.80;;;;;;;24.64;100.00;-18405.50;5072340;28;20230;-65
2022/07/28 02:29:23;;;;;;;8.20;7.78;;;;;;;24.68;100.00;-18406.34;5072418;28;20181;-65
2022/07/28 02:31:55;;;;;;;8.27;7.53;;;;;;;24.62;100.00;-18405.03;5072420;28;20726;-65
2022/07/28 02:34:26;;;;;;;7.55;7.13;;;;;;;24.52;100.00;-18402.66;5072187;28;20181;-65
2022/07/28 02:36:57;;;;;;;8.60;7.90;;;;;;;24.47;100.00;-18401.59;5073023;28;20631;-65
2022/07/28 02:39:27;;;;;;;8.68;7.95;;;;;;;24.44;100.00;-18400.78;5072262;28;20188;-65
2022/07/28 02:42:01;;;;;;;7.97;7.55;;;;;;;24.33;100.00;-18398.28;5072706;28;20181;-65
2022/07/28 02:44:35;;;;;;;8.40;7.70;;;;;;;24.24;100.00;-18396.16;5072894;28;20250;-65
2022/07/28 02:47:07;;;;;;;9.43;6.88;;;;;;;24.07;100.00;-18392.13;5073136;28;20201;-65
2022/07/28 02:49:40;;;;;;;7.20;6.78;;;;;;;24.11;100.00;-18393.06;5073496;28;20639;-65
2022/07/28 02:52:10;;;;;;;7.60;6.93;;;;;;;24.04;100.00;-18391.41;5072299;28;20212;-66
2022/07/28 02:54:38;;;;;;;6.78;6.10;;;;;;;23.93;100.00;-18388.81;5073078;28;20188;-66
2022/07/28 02:57:06;;;;;;;8.05;7.63;;;;;;;23.99;100.00;-18390.22;5071964;28;20265;-65
2022/07/28 02:59:35;;;;;;;7.18;6.50;;;;;;;23.83;100.00;-18386.44;5072243;28;20184;-65
2022/07/28 03:02:03;;;;;;;7.68;7.25;;;;;;;23.93;100.00;-18388.81;5072380;28;20195;-65
2022/07/28 03:07:16;;;;;;;7.38;6.95;;;;;;;24.02;100.00;-18390.94;5071930;28;20207;-65
2022/07/28 03:09:45;;;;;;;7.10;6.43;;;;;;;24.00;100.00;-18390.59;5072032;28;20271;-65
2022/07/28 03:12:12;;;;;;;7.15;6.85;;;;;;;23.84;100.00;-18386.78;5072249;28;20269;-66
2022/07/28 03:14:39;;;;;;;7.60;7.03;;;;;;;23.76;100.00;-18384.88;5072146;28;20180;-66
2022/07/28 03:17:06;;;;;;;7.30;6.53;;;;;;;23.83;100.00;-18386.44;5072179;28;20639;-66
2022/07/28 03:19:33;;;;;;;7.82;7.05;;;;;;;23.77;100.00;-18385.13;5071890;28;20187;-64
2022/07/28 03:22:00;;;;;;;7.43;6.93;;;;;;;23.62;100.00;-18381.56;5071805;28;20185;-65
2022/07/28 03:24:33;;;;;;;7.88;7.35;;;;;;;23.75;100.00;-18384.53;5071775;28;20227;-66
2022/07/28 03:27:07;;;;;;;8.95;8.35;;;;;;;23.92;100.00;-18388.69;5075637;28;20204;-65
2022/07/28 03:29:35;;;;;;;8.38;7.68;;;;;;;24.23;100.00;-18395.81;5075667;28;20189;-66
2022/07/28 03:32:02;;;;;;;10.15;7.55;;;;;;;24.65;100.00;-18405.63;5075580;28;20192;-66
2022/07/28 03:34:30;;;;;;;10.15;8.95;;;;;;;24.92;100.00;-18412.16;5075541;28;20201;-66
2022/07/28 03:37:02;;;;;;;8.65;8.13;;;;;;;25.05;100.00;-18415.09;5075710;28;20195;-66
2022/07/28 03:39:35;;;;;;;10.75;9.90;;;;;;;24.97;100.00;-18413.31;5075503;28;20191;-65
2022/07/28 03:42:04;;;;;;;10.70;10.18;;;;;;;24.89;100.00;-18411.31;5075762;28;20184;-65
2022/07/28 03:44:32;;;;;;;14.48;9.10;;;;;;;24.99;100.00;-18413.81;5075815;28;20567;-65
2022/07/28 03:46:59;;;;;;;9.85;7.57;;;;;;;25.12;100.00;-18416.66;5075359;28;20209;-65
2022/07/28 03:49:25;;;;;;;10.13;7.30;;;;;;;25.29;100.00;-18420.66;5075805;28;20199;-65
2022/07/28 03:51:52;;;;;;;16.13;9.57;;;;;;;25.29;100.00;-18420.66;5075420;28;20184;-64
2022/07/28 03:54:22;;;;;;;9.57;8.57;;;;;;;25.53;100.00;-18426.34;5075927;28;20220;-66
2022/07/28 03:56:50;;;;;;;8.55;7.85;;;;;;;25.86;100.00;-18434.16;5075414;28;20192;-65
2022/07/28 03:59:18;;;;;;;10.80;7.90;;;;;;;26.30;100.00;-18444.31;5075318;28;20190;-65
2022/07/28 04:01:45;;;;;;;10.85;7.38;;;;;;;26.57;100.00;-18450.69;5075437;28;20192;-65
2022/07/28 04:04:12;;;;;;;11.23;7.70;;;;;;;26.79;100.00;-15191.72;5075496;28;20185;-65
2022/07/28 04:06:39;;;;;;;11.43;8.30;;;;;;;26.99;100.00;-11602.13;5074983;28;20575;-66
2022/07/28 04:09:05;;;;;;;13.07;8.93;;;;;;;27.16;100.00;-6369.13;5074933;28;20193;-67
2022/07/28 04:11:32;;;;;;;23.10;9.35;;;;;;;27.08;100.00;-4076.09;5074738;28;20193;-66
2022/07/28 04:14:01;;;;;;;22.23;8.88;;;;;;;27.24;100.00;-1125.34;5074815;28;20607;-67
2022/07/28 04:16:27;;;;;;;13.73;9.50;;;;;;;27.22;100.00;4455.56;5074701;28;20216;-66
2022/07/28 04:18:54;;;;;;;42.03;11.27;;;;;;;27.23;100.00;9058.88;5074442;28;20187;-66
2022/07/28 04:21:21;;;;;;;38.38;11.88;;;;;;;27.32;100.00;12353.19;5074563;28;20199;-66
2022/07/28 04:23:49;;;;;;;40.50;12.75;;;;;;;27.22;100.00;13997.81;5075390;28;20250;-66
2022/07/28 04:26:17;;;;;;;34.83;10.80;;;;;;;27.37;100.00;15320.72;5075107;28;20224;-67
2022/07/28 04:28:44;;;;;;;34.80;11.02;;;;;;;27.65;100.00;17639.03;5074773;28;20258;-66
2022/07/28 04:31:12;;;;;;;21.55;10.85;;;;;;;27.82;100.00;23262.97;5074460;28;20185;-66
2022/07/28 04:33:39;;;;;;;26.23;11.07;;;;;;;27.97;100.00;24261.88;5074608;28;20184;-66
2022/07/28 04:36:06;;;;;;;19.52;9.50;;;;;;;27.99;100.00;32215.22;5074541;28;20257;-65
2022/07/28 04:38:33;;;;;;;18.67;9.45;;;;;;;28.07;100.00;30892.97;5074293;28;20184;-66
2022/07/28 04:41:00;;;;;;;15.02;8.50;;;;;;;28.21;100.00;31895.50;5074670;28;20184;-65
2022/07/28 04:43:27;;;;;;;12.88;8.43;;;;;;;28.33;100.00;32566.47;5074532;28;20199;-66
2022/07/28 04:45:54;;;;;;;16.02;8.68;;;;;;;28.46;100.00;38555.34;5074850;28;20192;-66
2022/07/28 04:48:22;;;;;;;11.68;6.72;;;;;;;27.94;100.00;24591.69;5074224;28;20177;-66
2022/07/28 04:50:51;;;;;;;12.98;7.55;;;;;;;28.11;100.00;17985.13;5074340;28;20192;-66
2022/07/28 04:53:18;;;;;;;17.38;8.60;;;;;;;28.08;100.00;17323.41;5074257;28;20585;-66
2022/07/28 04:55:45;;;;;;;12.10;8.27;;;;;;;28.11;100.00;26255.06;5073336;28;20189;-68
2022/07/28 04:58:12;;;;;;;17.33;7.85;;;;;;;28.14;100.00;22945.69;5077036;28;20188;-66
2022/07/28 05:00:39;;;;;;;17.00;9.30;;;;;;;27.87;100.00;17646.38;5060214;28;20201;-66
2022/07/28 05:03:06;;;;;;;15.63;9.15;;;;;;;27.71;100.00;11374.50;5075204;28;20594;-66
2022/07/28 05:05:34;;;;;;;18.38;10.82;;;;;;;27.63;100.00;7750.22;5075611;28;20192;-65
2022/07/28 05:08:01;;;;;;;11.13;9.30;;;;;;;27.35;100.00;5443.25;5076050;28;20223;-68
2022/07/28 05:10:28;;;;;;;15.23;8.85;;;;;;;27.77;100.00;5449.31;5076197;28;20185;-67
2022/07/28 05:12:55;;;;;;;50.90;32.13;;;;;;;28.05;100.00;12371.69;5079216;28;20816;-67
2022/07/28 05:15:22;;;;;;;23.05;11.10;;;;;;;28.22;100.00;16336.84;5097869;28;20543;-68
2022/07/28 05:17:49;;;;;;;8.85;7.57;;;;;;;28.25;100.00;21626.63;5098701;28;20198;-67
2022/07/28 05:20:16;;;;;;;5.05;4.85;;;;;;;28.18;100.00;28909.16;5096140;28;20216;-66
2022/07/28 05:22:46;;;;;;;5.60;5.15;;;;;;;28.33;100.00;31902.34;5095246;28;20184;-67
2022/07/28 05:25:14;;;;;;;6.15;4.28;;;;;;;28.21;100.00;44528.66;5095173;28;20184;-68
2022/07/28 05:27:41;;;;;;;4.57;4.30;;;;;;;28.04;100.00;52850.22;5095545;28;20463;-65
2022/07/28 05:30:10;;;;;;;4.53;4.22;;;;;;;28.05;100.00;46181.59;5091860;28;20200;-66
2022/07/28 05:32:37;;;;;;;3.75;3.58;;;;;;;27.97;100.00;57854.00;5078862;28;20210;-66
2022/07/28 05:35:04;;;;;;;4.10;3.90;;;;;;;28.15;100.00;55866.34;5083401;28;20571;-67
2022/07/28 05:37:33;;;;;;;4.00;3.80;;;;;;;28.14;100.00;64564.47;5096046;28;20710;-66
2022/07/28 05:40:02;;;;;;;3.78;3.60;;;;;;;28.32;100.00;84075.91;5095087;28;20595;-67
2022/07/28 05:42:34;;;;;;;4.80;3.80;;;;;;;28.36;100.00;85092.84;5095042;28;20279;-67
2022/07/28 05:45:02;;;;;;;3.40;3.20;;;;;;;28.38;100.00;153182.13;5095055;28;20635;-68
2022/07/28 05:47:29;;;;;;;3.58;3.47;;;;;;;28.47;100.00;126491.25;5094548;28;20200;-66
2022/07/28 05:50:00;;;;;;;3.75;3.55;;;;;;;28.43;100.00;112181.63;5092633;28;20182;-65
2022/07/28 05:52:27;;;;;;;3.83;3.58;;;;;;;28.38;100.00;117954.28;5093553;28;20263;-66
2022/07/28 05:54:55;;;;;;;3.97;3.78;;;;;;;28.23;100.00;90471.47;5094065;28;20184;-66
2022/07/28 05:57:24;;;;;;;4.40;4.00;;;;;;;28.18;100.00;108400.25;5094028;28;20207;-66
2022/07/28 05:59:51;;;;;;;4.10;3.90;;;;;;;28.15;100.00;122676.13;5094430;28;20180;-66
2022/07/28 06:02:18;;;;;;;3.67;3.47;;;;;;;28.20;100.00;104674.19;5093396;28;20554;-67
2022/07/28 06:04:45;;;;;;;3.78;3.58;;;;;;;28.00;100.00;106672.72;5093356;28;20558;-67
2022/07/28 06:07:12;;;;;;;3.65;3.53;;;;;;;28.33;100.00;102324.63;5093170;28;20256;-67
2022/07/28 06:09:39;;;;;;;4.63;4.43;;;;;;;28.61;100.00;107460.81;5093512;28;20235;-68
2022/07/28 06:12:07;;;;;;;3.60;3.50;;;;;;;28.85;100.00;133063.81;5093310;28;20235;-67
2022/07/28 06:14:35;;;;;;;3.90;3.67;;;;;;;28.80;100.00;147958.03;5093536;28;20188;-61
2022/07/28 06:17:02;;;;;;;5.30;3.67;;;;;;;28.96;100.00;153329.41;5092700;28;20181;-67
2022/07/28 06:19:29;;;;;;;3.83;3.63;;;;;;;28.89;100.00;153310.22;5092642;28;20287;-68
2022/07/28 06:21:56;;;;;;;3.30;3.20;;;;;;;29.23;100.00;153397.28;5093105;28;20596;-67
2022/07/28 06:24:23;;;;;;;3.88;3.67;;;;;;;28.88;100.00;153307.63;5093064;28;20184;-67
2022/07/28 06:26:51;;;;;;;4.43;4.05;;;;;;;29.01;100.00;153340.94;5092433;28;20626;-66
2022/07/28 06:29:19;;;;;;;3.17;2.97;;;;;;;29.18;100.00;153384.47;5093598;28;20196;-66
2022/07/28 06:31:47;;;;;;;3.53;3.42;;;;;;;29.33;100.00;153422.94;5093412;28;20194;-67
2022/07/28 06:34:14;;;;;;;4.57;3.30;;;;;;;29.63;100.00;153497.22;5093068;28;20184;-67
2022/07/28 06:36:41;;;;;;;3.22;3.13;;;;;;;29.44;100.00;153451.16;5093048;28;20635;-67
2022/07/28 06:39:08;;;;;;;3.58;3.30;;;;;;;29.67;100.00;153508.75;5092924;28;20266;-67
2022/07/28 06:41:40;;;;;;;3.67;3.13;;;;;;;29.73;100.00;153522.88;5092933;28;20191;-66
2022/07/28 06:44:07;;;;;;;2.67;2.58;;;;;;;30.05;100.00;153604.91;5091623;28;20199;-67
2022/07/28 06:46:34;;;;;;;3.30;3.05;;;;;;;30.02;100.00;153597.25;5093086;28;20190;-67
2022/07/28 06:49:04;;;;;;;2.97;2.88;;;;;;;29.61;100.00;153492.13;5092839;28;20635;-66
2022/07/28 06:51:31;;;;;;;3.20;2.92;;;;;;;29.96;100.00;153581.84;5090845;28;20200;-68
2022/07/28 06:53:58;;;;;;;3.25;3.05;;;;;;;30.23;100.00;153651.06;5093346;28;20184;-67
2022/07/28 06:56:25;;;;;;;4.10;3.22;;;;;;;30.44;100.00;153703.66;5093828;28;20194;-67
2022/07/28 06:58:52;;;;;;;3.35;3.22;;;;;;;30.34;100.00;153679.25;5091935;28;20234;-66
2022/07/28 07:01:19;;;;;;;3.55;3.00;;;;;;;30.56;100.00;153733.13;5092397;28;20203;-66
2022/07/28 07:03:46;;;;;;;2.97;2.88;;;;;;;30.66;100.00;153758.78;5092443;28;20191;-68
2022/07/28 07:06:14;;;;;;;3.38;3.28;;;;;;;30.81;100.00;153797.22;5092119;28;20188;-68
2022/07/28 07:08:41;;;;;;;2.97;2.88;;;;;;;30.95;100.00;153833.13;5092875;28;20208;-67
2022/07/28 07:11:08;;;;;;;4.53;3.97;;;;;;;30.58;100.00;153738.28;5092379;28;20184;-66
2022/07/28 07:13:35;;;;;;;3.60;3.30;;;;;;;30.58;100.00;153738.28;5091140;28;20242;-67
2022/07/28 07:16:02;;;;;;;3.05;2.95;;;;;;;30.61;100.00;153745.94;5092752;28;20192;-67
2022/07/28 07:18:29;;;;;;;3.30;3.05;;;;;;;30.20;100.00;153643.38;5092466;28;20190;-67
2022/07/28 07:20:57;;;;;;;3.05;2.90;;;;;;;29.80;100.00;153540.78;5092440;28;20188;-66
2022/07/28 07:23:26;;;;;;;3.55;3.35;;;;;;;29.49;100.00;153463.91;5092822;28;20191;-67
2022/07/28 07:25:53;;;;;;;5.05;3.42;;;;;;;30.01;100.00;153594.66;5092531;28;20278;-67
2022/07/28 07:28:22;;;;;;;2.88;2.78;;;;;;;29.38;100.00;153435.75;5092437;28;20215;-67
2022/07/28 07:30:49;;;;;;;4.07;3.20;;;;;;;29.69;100.00;153512.63;5092562;28;20192;-66
2022/07/28 07:33:16;;;;;;;3.80;3.60;;;;;;;29.71;100.00;153517.72;5092304;28;20200;-67
2022/07/28 07:35:43;;;;;;;3.30;3.13;;;;;;;29.91;100.00;153569.06;5091270;28;20210;-66
2022/07/28 07:38:11;;;;;;;4.13;3.40;;;;;;;30.03;100.00;153599.81;5092304;28;20187;-66
2022/07/28 07:40:39;;;;;;;3.53;3.28;;;;;;;29.99;100.00;153588.28;5092277;28;20188;-67
2022/07/28 07:43:06;;;;;;;3.38;3.15;;;;;;;29.83;100.00;153548.50;5093048;28;20218;-67
2022/07/28 07:45:33;;;;;;;3.50;3.20;;;;;;;29.80;100.00;153540.78;5093208;28;20188;-67
2022/07/28 07:48:01;;;;;;;8.88;3.45;;;;;;;29.98;100.00;153587.00;5092423;28;20208;-67
2022/07/28 07:50:28;;;;;;;3.67;3.28;;;;;;;30.03;100.00;153599.81;5092978;28;20233;-67
2022/07/28 07:52:55;;;;;;;3.20;3.00;;;;;;;29.80;100.00;153540.78;5092670;28;20686;-66
2022/07/28 07:55:22;;;;;;;3.20;3.00;;;;;;;29.90;100.00;153566.50;5092198;28;20204;-66
2022/07/28 07:57:50;;;;;;;3.95;3.75;;;;;;;30.34;100.00;153679.25;5091042;28;20246;-67
2022/07/28 08:00:18;;;;;;;3.78;3.53;;;;;;;30.55;100.00;153731.88;5093118;28;20195;-67
2022/07/28 08:02:45;;;;;;;3.85;3.60;;;;;;;30.72;100.00;153774.19;5092088;28;20188;-67
2022/07/28 08:05:12;;;;;;;3.17;3.08;;;;;;;30.73;100.00;153776.72;5092396;28;20279;-66
2022/07/28 08:07:39;;;;;;;3.28;3.10;;;;;;;30.54;100.00;153729.31;5091731;28;20218;-67
2022/07/28 08:10:07;;;;;;;3.45;3.03;;;;;;;30.54;100.00;153728.03;5092882;28;20241;-67
2022/07/28 08:12:34;;;;;;;2.80;2.70;;;;;;;30.81;100.00;153797.22;5093946;28;20232;-66
2022/07/28 08:15:03;;;;;;;3.30;3.03;;;;;;;30.77;100.00;153786.97;5095092;28;20195;-66
2022/07/28 08:17:30;;;;;;;3.65;3.45;;;;;;;30.84;100.00;153804.94;5095285;28;20199;-67
2022/07/28 08:19:57;;;;;;;3.08;2.97;;;;;;;30.76;100.00;153784.44;5095143;28;20188;-66
2022/07/28 08:22:24;;;;;;;3.08;2.97;;;;;;;31.00;100.00;153846.03;5095960;28;20187;-65
2022/07/28 08:24:51;;;;;;;3.38;3.10;;;;;;;31.16;100.00;153887.03;5095688;28;20646;-65
2022/07/28 08:27:18;;;;;;;3.45;3.15;;;;;;;30.93;100.00;153828.03;5094158;28;20226;-67
2022/07/28 08:29:45;;;;;;;3.63;3.33;;;;;;;30.85;100.00;153807.53;5095606;28;20192;-67
2022/07/28 08:32:13;;;;;;;3.72;3.53;;;;;;;30.71;100.00;153772.91;5095828;28;20180;-67
2022/07/28 08:34:40;;;;;;;3.65;3.38;;;;;;;30.28;100.00;153663.88;5095953;28;20188;-66
2022/07/28 08:37:07;;;;;;;4.03;3.15;;;;;;;29.50;100.00;153466.50;5096612;28;20623;-66
2022/07/28 08:39:35;;;;;;;3.38;3.28;;;;;;;29.37;100.00;153433.19;5095910;28;20195;-67
2022/07/28 08:42:06;;;;;;;3.50;3.33;;;;;;;29.78;100.00;153536.97;5096388;28;20511;-66
2022/07/28 08:44:48;;;;;;;4.18;3.70;;;;;;;29.87;100.00;153560.06;5095422;28;20290;-67
2022/07/28 08:47:17;;;;;;;4.20;4.00;;;;;;;29.77;100.00;153533.13;5095648;28;20226;-67
2022/07/28 08:49:47;;;;;;;2.90;2.80;;;;;;;29.64;100.00;153499.81;5095291;28;20215;-67
2022/07/28 08:52:15;;;;;;;3.13;2.95;;;;;;;29.85;100.00;153553.63;5094901;28;20192;-67
2022/07/28 08:54:48;;;;;;;2.97;2.85;;;;;;;29.99;100.00;153588.28;5095095;28;20631;-66
2022/07/28 08:57:18;;;;;;;3.40;3.20;;;;;;;29.90;100.00;153566.50;5095220;28;20623;-66
2022/07/28 08:59:47;;;;;;;3.30;3.10;;;;;;;29.93;100.00;153575.44;5094403;28;20189;-66
2022/07/28 09:02:16;;;;;;;3.58;3.38;;;;;;;29.75;100.00;153527.97;5094711;28;20707;-67
2022/07/28 09:04:45;;;;;;;2.92;2.83;;;;;;;29.81;100.00;153543.38;5095106;28;20622;-66
2022/07/28 09:07:13;;;;;;;3.40;3.20;;;;;;;29.83;100.00;153548.50;5095689;28;20259;-68
2022/07/28 09:09:40;;;;;;;3.30;3.20;;;;;;;29.71;100.00;153519.00;5094674;28;20180;-67
2022/07/28 09:12:07;;;;;;;4.28;3.70;;;;;;;29.30;100.00;153415.25;5094160;28;20239;-66
2022/07/28 09:14:34;;;;;;;3.20;3.10;;;;;;;29.77;100.00;153533.13;5094786;28;20598;-67
2022/07/28 09:17:02;;;;;;;3.35;3.15;;;;;;;29.70;100.00;153515.19;5094724;28;20268;-67
2022/07/28 09:19:31;;;;;;;3.40;3.30;;;;;;;29.86;100.00;153556.19;5094486;28;20180;-67
2022/07/28 09:21:58;;;;;;;3.33;3.15;;;;;;;30.01;100.00;153594.66;5094134;28;20184;-67
2022/07/28 09:24:36;;;;;;;3.45;3.10;;;;;;;29.92;100.00;153571.59;5095006;28;20192;-66
2022/07/28 09:27:06;;;;;;;3.63;3.35;;;;;;;30.10;100.00;153616.44;5094198;28;20286;-67
2022/07/28 09:29:34;;;;;;;3.10;3.00;;;;;;;30.00;100.00;153590.84;5094122;28;20346;-67
2022/07/28 09:32:01;;;;;;;3.33;3.22;;;;;;;29.57;100.00;153481.88;5094590;28;20187;-67
2022/07/28 09:34:28;;;;;;;2.95;2.85;;;;;;;29.79;100.00;153538.28;5094785;28;20526;-67
2022/07/28 09:36:57;;;;;;;5.03;3.10;;;;;;;29.68;100.00;153511.34;5094656;28;20180;-66
2022/07/28 09:39:34;;;;;;;4.13;3.30;;;;;;;29.67;100.00;153508.75;5094616;28;20574;-66
2022/07/28 09:42:01;;;;;;;3.40;3.30;;;;;;;30.00;100.00;153592.13;5093748;28;20188;-66
2022/07/28 09:44:28;;;;;;;3.30;3.20;;;;;;;29.85;100.00;153553.63;5095173;28;20639;-68
2022/07/28 09:46:56;;;;;;;3.03;2.92;;;;;;;29.86;100.00;153557.47;5093724;28;20192;-67
2022/07/28 09:49:40;;;;;;;3.05;2.95;;;;;;;29.82;100.00;153545.94;5093941;28;20212;-66
2022/07/28 09:52:09;;;;;;;3.03;2.92;;;;;;;29.90;100.00;153566.50;5093369;28;20188;-67
2022/07/28 09:54:36;;;;;;;4.22;3.10;;;;;;;30.06;100.00;153607.47;5094009;28;20191;-66
2022/07/28 09:57:03;;;;;;;3.03;2.92;;;;;;;29.86;100.00;153557.47;5093383;28;20224;-66
2022/07/28 09:59:41;;;;;;;3.03;2.92;;;;;;;30.04;100.00;153601.09;5093382;28;20188;-67
2022/07/28 10:02:09;;;;;;;3.80;3.47;;;;;;;30.31;100.00;153671.56;5092944;28;20195;-66
2022/07/28 10:04:39;;;;;;;2.80;2.67;;;;;;;30.58;100.00;153738.28;5093910;28;20191;-67
2022/07/28 10:07:08;;;;;;;2.88;2.78;;;;;;;30.71;100.00;153771.59;5093823;28;20184;-65
2022/07/28 10:09:38;;;;;;;3.22;3.10;;;;;;;30.79;100.00;153793.41;5093533;28;20211;-66
2022/07/28 10:12:16;;;;;;;3.50;3.15;;;;;;;30.48;100.00;153713.91;5093644;28;20308;-67
2022/07/28 10:14:45;;;;;;;3.10;3.00;;;;;;;30.10;100.00;153617.72;5093379;28;20187;-67
2022/07/28 10:17:21;;;;;;;3.33;3.13;;;;;;;30.28;100.00;153662.59;5092136;28;20241;-67
2022/07/28 10:19:50;;;;;;;3.20;3.10;;;;;;;30.10;100.00;153617.72;5093630;28;20266;-67
2022/07/28 10:22:19;;;;;;;3.08;2.92;;;;;;;30.50;100.00;153717.78;5093739;28;20295;-67
2022/07/28 10:24:52;;;;;;;2.88;2.65;;;;;;;30.19;100.00;153640.81;5093454;28;20192;-68
2022/07/28 10:27:21;;;;;;;3.13;2.92;;;;;;;30.08;100.00;153612.63;5093396;28;20184;-66
2022/07/28 10:29:52;;;;;;;3.60;3.30;;;;;;;30.02;100.00;153597.25;5093883;28;20204;-67
2022/07/28 10:32:20;;;;;;;3.08;2.90;;;;;;;30.13;100.00;153624.19;5092940;28;20198;-66
2022/07/28 10:34:51;;;;;;;4.15;3.03;;;;;;;30.42;100.00;153697.22;5092703;28;20184;-66
2022/07/28 10:37:22;;;;;;;2.55;2.45;;;;;;;30.45;100.00;153704.94;5093452;28;20184;-66
2022/07/28 10:39:57;;;;;;;3.05;2.88;;;;;;;30.38;100.00;153689.50;5092663;28;20197;-66
2022/07/28 10:42:25;;;;;;;2.80;2.70;;;;;;;30.40;100.00;153693.34;5092598;28;20194;-69
2022/07/28 10:44:54;;;;;;;3.03;2.83;;;;;;;30.33;100.00;153675.44;5092734;28;20222;-66
2022/07/28 10:47:22;;;;;;;2.70;2.60;;;;;;;30.44;100.00;153702.31;5091695;28;20180;-66
2022/07/28 10:49:49;;;;;;;3.20;3.00;;;;;;;30.17;100.00;153634.41;5092291;28;20287;-67
2022/07/28 10:52:17;;;;;;;3.03;2.78;;;;;;;29.98;100.00;153587.00;5092982;28;20184;-66
2022/07/28 10:54:49;;;;;;;3.63;3.33;;;;;;;30.29;100.00;153665.19;5092938;28;20184;-66
2022/07/28 10:57:19;;;;;;;3.25;2.88;;;;;;;30.04;100.00;153601.09;5092496;28;20188;-69
2022/07/28 11:00:00;;;;;;;3.38;3.17;;;;;;;29.85;100.00;153553.63;5093031;28;20184;-68
2022/07/28 11:02:46;;;;;;;3.35;3.25;;;;;;;29.99;100.00;153588.28;5092471;28;20244;-65
2022/07/28 11:05:26;;;;;;;3.88;3.03;;;;;;;29.80;100.00;153542.09;5092122;28;20187;-67
2022/07/28 11:07:54;;;;;;;3.30;3.03;;;;;;;29.71;100.00;153517.72;5091696;28;20194;-65
2022/07/28 11:10:22;;;;;;;4.95;3.53;;;;;;;29.49;100.00;153463.91;5092170;28;20192;-66
2022/07/28 11:12:51;;;;;;;3.20;3.10;;;;;;;29.32;100.00;153420.38;5092620;28;20238;-66
2022/07/28 11:15:33;;;;;;;3.30;3.00;;;;;;;29.10;100.00;153364.00;5092286;28;20288;-66
2022/07/28 11:18:02;;;;;;;3.67;3.40;;;;;;;28.91;100.00;153316.59;5092398;28;20190;-66
2022/07/28 11:21:07;;;;;;;3.42;3.00;;;;;;;29.11;100.00;153366.50;5092511;28;20276;-66
2022/07/28 11:23:54;;;;;;;3.15;3.05;;;;;;;28.89;100.00;153310.22;5092275;28;20257;-66
2022/07/28 11:26:44;;;;;;;2.97;2.88;;;;;;;28.74;100.00;153271.75;5092211;28;20222;-67
2022/07/28 11:29:21;;;;;;;3.40;3.20;;;;;;;28.95;100.00;153325.53;5089772;28;20740;-66